Time;durP1;ratioP1;P1;durP2;ratioP2;P2;SDS_P1;SDS_P2;PMS_P1;PMS_P2;Temp;Humidity;BMP_temperature;BMP_pressure;BME280_temperature;BME280_humidity;BME280_pressure;Samples;Min_cycle;Max_cycle;Signal;HPM_P1;HPM_P2
2022/10/05 00:00:47;;;;;;;3.70;2.60;;;11.40;99.90;;;;;;5049887;28;20436;-78
2022/10/05 00:03:12;;;;;;;2.50;2.30;;;11.40;99.90;;;;;;5049812;28;20983;-77
2022/10/05 00:05:39;;;;;;;4.00;2.60;;;11.40;99.90;;;;;;5048573;28;20421;-77
2022/10/05 00:08:16;;;;;;;2.47;2.17;;;11.40;99.90;;;;;;5050000;28;20177;-79
2022/10/05 00:10:44;;;;;;;4.93;2.23;;;11.30;99.90;;;;;;5049761;28;20401;-77
2022/10/05 00:13:20;;;;;;;2.30;2.10;;;11.20;99.90;;;;;;5048481;28;20429;-78
2022/10/05 00:15:46;;;;;;;2.73;2.53;;;11.10;99.90;;;;;;5049841;28;20450;-77
2022/10/05 00:18:19;;;;;;;3.07;2.30;;;11.00;99.90;;;;;;5048276;28;20479;-78
2022/10/05 00:20:47;;;;;;;3.43;3.13;;;11.00;99.90;;;;;;5047995;28;20810;-78
2022/10/05 00:23:20;;;;;;;2.70;2.43;;;11.10;99.90;;;;;;5049348;28;20464;-77
2022/10/05 00:25:46;;;;;;;3.53;2.47;;;11.10;99.90;;;;;;5048001;28;20831;-77
2022/10/05 00:28:25;;;;;;;2.27;2.07;;;11.10;99.90;;;;;;5049403;28;20780;-76
2022/10/05 00:30:54;;;;;;;8.90;2.83;;;11.10;99.90;;;;;;5049096;28;20428;-78
2022/10/05 00:33:20;;;;;;;2.43;2.23;;;11.00;99.90;;;;;;5049093;28;20574;-77
2022/10/05 00:35:45;;;;;;;2.60;2.40;;;11.00;99.90;;;;;;5049347;28;20506;-77
2022/10/05 00:38:11;;;;;;;3.90;2.70;;;11.10;99.90;;;;;;5048066;28;20300;-77
2022/10/05 00:41:08;;;;;;;6.60;3.40;;;11.10;99.90;;;;;;5049471;28;20648;-78
2022/10/05 00:44:18;;;;;;;4.10;2.50;;;11.10;99.90;;;;;;5049366;28;20707;-77
2022/10/05 00:47:09;;;;;;;3.50;3.00;;;11.10;99.90;;;;;;5049608;28;20482;-78
2022/10/05 00:50:04;;;;;;;2.93;2.57;;;11.00;99.90;;;;;;5050973;28;20410;-77
2022/10/05 00:53:05;;;;;;;2.93;2.63;;;11.00;99.90;;;;;;5049303;28;20416;-78
2022/10/05 00:55:56;;;;;;;5.30;3.27;;;10.90;99.90;;;;;;5049258;28;20490;-78
2022/10/05 00:58:46;;;;;;;7.97;3.30;;;11.00;99.90;;;;;;5048211;28;20445;-78
2022/10/05 01:01:26;;;;;;;4.83;3.53;;;11.10;99.90;;;;;;5048015;28;20552;-77
2022/10/05 01:04:12;;;;;;;4.57;2.90;;;11.20;99.90;;;;;;5049239;28;20491;-78
2022/10/05 01:06:40;;;;;;;3.03;2.73;;;11.20;99.90;;;;;;5049325;28;20409;-79
2022/10/05 01:09:52;;;;;;;6.40;3.33;;;11.30;99.90;;;;;;5049067;28;20495;-77
2022/10/05 01:12:38;;;;;;;3.30;3.00;;;11.40;99.90;;;;;;5029857;28;20432;-76
2022/10/05 01:15:25;;;;;;;3.57;2.80;;;11.60;99.90;;;;;;5049356;28;20436;-78
2022/10/05 01:18:06;;;;;;;5.30;3.20;;;11.50;99.90;;;;;;5047984;28;20485;-78
2022/10/05 01:21:05;;;;;;;8.67;3.37;;;11.40;99.90;;;;;;5049265;28;20487;-78
2022/10/05 01:24:02;;;;;;;5.43;2.80;;;11.30;99.90;;;;;;5049339;28;20555;-77
2022/10/05 01:27:04;;;;;;;3.90;2.80;;;11.20;99.90;;;;;;5049396;28;20485;-77
2022/10/05 01:29:35;;;;;;;8.37;3.00;;;11.20;99.90;;;;;;5049614;28;20445;-77
2022/10/05 01:32:07;;;;;;;4.10;2.83;;;11.30;99.90;;;;;;5051739;28;20436;-77
2022/10/05 01:34:47;;;;;;;5.23;2.90;;;11.30;99.90;;;;;;5050592;28;20470;-77
2022/10/05 01:37:50;;;;;;;3.47;3.07;;;11.20;99.90;;;;;;5050869;28;20444;-77
2022/10/05 01:40:38;;;;;;;2.57;2.37;;;11.20;99.90;;;;;;5050513;28;20401;-78
2022/10/05 01:43:37;;;;;;;2.67;2.47;;;11.20;99.90;;;;;;5049778;28;20897;-78
2022/10/05 01:46:12;;;;;;;5.07;2.93;;;11.00;99.90;;;;;;5048269;28;20419;-78
2022/10/05 01:48:56;;;;;;;5.03;2.53;;;10.90;99.90;;;;;;5048413;28;20533;-77
2022/10/05 01:51:46;;;;;;;4.23;3.00;;;10.60;99.90;;;;;;5049353;28;20824;-78
2022/10/05 01:54:43;;;;;;;5.70;2.60;;;10.70;99.90;;;;;;5048748;28;20448;-78
2022/10/05 01:57:20;;;;;;;10.30;3.77;;;10.60;99.90;;;;;;5048736;28;20428;-78
2022/10/05 02:00:06;;;;;;;4.97;4.47;;;10.40;99.90;;;;;;5048847;28;20401;-78
2022/10/05 02:02:38;;;;;;;3.33;3.03;;;10.20;99.90;;;;;;5050552;28;20881;-78
2022/10/05 02:05:12;;;;;;;4.10;3.60;;;10.10;99.90;;;;;;5052337;28;20446;-77
2022/10/05 02:07:47;;;;;;;4.50;3.20;;;10.10;99.90;;;;;;5052375;28;20410;-78
2022/10/05 02:10:18;;;;;;;3.40;3.10;;;10.00;99.90;;;;;;5052314;28;20462;-78
2022/10/05 02:12:47;;;;;;;4.00;2.93;;;10.00;99.90;;;;;;5050764;28;20419;-79
2022/10/05 02:15:24;;;;;;;4.23;3.40;;;10.00;99.90;;;;;;5050799;28;20440;-79
2022/10/05 02:17:55;;;;;;;3.17;2.87;;;9.90;99.90;;;;;;5052299;28;21005;-79
2022/10/05 02:20:30;;;;;;;3.67;3.00;;;9.80;99.90;;;;;;5052060;28;20417;-78
2022/10/05 02:23:02;;;;;;;3.67;2.90;;;9.90;99.90;;;;;;5052027;28;21201;-78
2022/10/05 02:25:37;;;;;;;4.17;2.97;;;9.80;99.90;;;;;;5052200;28;20425;-77
2022/10/05 02:28:15;;;;;;;4.70;3.27;;;9.70;99.90;;;;;;5052092;28;20492;-78
2022/10/05 02:30:46;;;;;;;3.27;3.03;;;9.60;99.90;;;;;;5051972;28;20396;-78
2022/10/05 02:33:28;;;;;;;8.47;4.40;;;9.60;99.90;;;;;;5052041;28;20920;-78
2022/10/05 02:35:59;;;;;;;4.27;3.80;;;9.60;99.90;;;;;;5051824;28;20988;-78
2022/10/05 02:38:51;;;;;;;4.40;3.97;;;9.60;99.90;;;;;;5052142;28;20420;-78
2022/10/05 02:41:41;;;;;;;6.53;4.83;;;9.60;99.90;;;;;;5050400;28;20421;-79
2022/10/05 02:44:59;;;;;;;9.07;3.70;;;9.50;99.90;;;;;;5051764;28;20453;-78
2022/10/05 02:47:41;;;;;;;5.63;4.50;;;9.50;99.90;;;;;;5037535;28;20457;-78
2022/10/05 02:50:35;;;;;;;9.73;4.37;;;9.50;99.90;;;;;;5051589;28;20440;-78
2022/10/05 02:53:14;;;;;;;8.30;3.90;;;9.40;99.90;;;;;;5049847;28;20446;-78
2022/10/05 02:56:09;;;;;;;5.20;4.50;;;9.40;99.90;;;;;;5051529;28;20400;-77
2022/10/05 02:58:47;;;;;;;5.20;3.90;;;9.40;99.90;;;;;;5021944;28;20822;-77
2022/10/05 03:01:34;;;;;;;4.17;3.77;;;9.40;99.90;;;;;;5049803;28;20433;-78
2022/10/05 03:04:25;;;;;;;7.00;4.30;;;9.40;99.90;;;;;;5051552;28;20454;-77
2022/10/05 03:07:28;;;;;;;6.20;3.60;;;9.30;99.90;;;;;;5051538;28;20568;-79
2022/10/05 03:10:36;;;;;;;5.13;4.13;;;9.20;99.90;;;;;;5051790;28;20412;-78
2022/10/05 03:13:26;;;;;;;5.03;4.53;;;9.10;99.90;;;;;;5028041;28;20909;-77
2022/10/05 03:15:54;;;;;;;5.57;3.90;;;9.10;99.90;;;;;;5050640;28;20412;-78
2022/10/05 03:18:41;;;;;;;6.50;3.93;;;9.10;99.90;;;;;;5053461;28;20434;-78
2022/10/05 03:21:33;;;;;;;5.80;4.60;;;9.00;99.90;;;;;;5051883;28;20408;-78
2022/10/05 03:24:26;;;;;;;6.60;5.30;;;9.00;99.90;;;;;;5035503;28;20990;-79
2022/10/05 03:26:58;;;;;;;6.20;4.87;;;8.90;99.90;;;;;;5051698;28;20457;-78
2022/10/05 03:29:33;;;;;;;5.00;4.43;;;8.90;99.90;;;;;;5051589;28;20463;-79
2022/10/05 03:32:26;;;;;;;16.87;5.37;;;8.80;99.90;;;;;;5051188;28;20391;-76
2022/10/05 03:35:21;;;;;;;8.13;5.50;;;8.80;99.90;;;;;;5050827;28;20431;-77
2022/10/05 03:38:08;;;;;;;6.37;4.93;;;8.80;99.90;;;;;;5042008;28;20971;-77
2022/10/05 03:41:03;;;;;;;8.00;5.27;;;8.70;99.90;;;;;;5051051;28;20736;-77
2022/10/05 03:43:53;;;;;;;8.03;4.83;;;8.70;99.90;;;;;;5049314;28;20499;-77
2022/10/05 03:46:44;;;;;;;5.63;4.57;;;8.60;99.90;;;;;;5050943;28;20410;-77
2022/10/05 03:49:15;;;;;;;11.57;4.53;;;8.50;99.90;;;;;;5050774;28;20395;-78
2022/10/05 03:51:59;;;;;;;5.80;4.63;;;8.50;99.90;;;;;;5050822;28;20432;-78
2022/10/05 03:54:33;;;;;;;5.80;4.10;;;8.50;99.90;;;;;;5050475;28;20849;-79
2022/10/05 03:57:34;;;;;;;8.87;4.67;;;8.60;99.90;;;;;;5050446;28;20509;-78
2022/10/05 04:00:05;;;;;;;6.90;4.47;;;8.50;99.90;;;;;;5046096;28;20521;-78
2022/10/05 04:03:14;;;;;;;6.13;4.47;;;8.50;99.90;;;;;;5050493;28;21264;-78
2022/10/05 04:05:50;;;;;;;5.13;3.87;;;8.20;99.90;;;;;;5050249;28;20427;-78
2022/10/05 04:08:24;;;;;;;6.60;4.67;;;8.20;99.90;;;;;;5048644;28;20422;-77
2022/10/05 04:10:52;;;;;;;8.80;5.20;;;8.30;99.90;;;;;;5049955;28;20570;-77
2022/10/05 04:13:18;;;;;;;12.00;6.73;;;8.30;99.90;;;;;;5049694;28;20434;-78
2022/10/05 04:16:10;;;;;;;6.70;4.73;;;8.30;99.90;;;;;;5050189;28;20786;-78
2022/10/05 04:18:43;;;;;;;4.40;4.00;;;8.40;99.90;;;;;;5048281;28;20191;-78
2022/10/05 04:21:38;;;;;;;6.43;4.37;;;8.50;99.90;;;;;;5049979;28;20408;-77
2022/10/05 04:24:13;;;;;;;4.90;4.40;;;8.70;99.90;;;;;;5046260;28;20576;-78
2022/10/05 04:26:47;;;;;;;12.00;4.30;;;8.80;99.90;;;;;;5048225;28;20435;-77
2022/10/05 04:29:39;;;;;;;7.80;3.93;;;8.90;99.90;;;;;;5049764;28;20485;-77
2022/10/05 04:32:36;;;;;;;10.33;3.93;;;9.00;99.90;;;;;;5048223;28;20414;-77
2022/10/05 04:35:32;;;;;;;5.20;4.00;;;9.00;99.90;;;;;;5049595;28;20502;-77
2022/10/05 04:38:15;;;;;;;5.20;4.13;;;8.90;99.90;;;;;;5049640;28;20668;-78
2022/10/05 04:40:59;;;;;;;6.67;3.63;;;8.90;99.90;;;;;;5047995;28;20397;-78
2022/10/05 04:43:42;;;;;;;9.40;4.90;;;8.80;99.90;;;;;;5049271;28;20495;-78
2022/10/05 04:46:35;;;;;;;5.17;4.00;;;8.70;99.90;;;;;;5049370;28;20415;-77
2022/10/05 04:49:18;;;;;;;6.63;5.30;;;8.60;99.90;;;;;;5049708;28;20899;-77
2022/10/05 04:52:05;;;;;;;4.43;4.03;;;8.50;99.90;;;;;;5049461;28;20443;-78
2022/10/05 04:54:56;;;;;;;4.93;4.30;;;8.50;99.90;;;;;;5049492;28;20426;-77
2022/10/05 04:57:39;;;;;;;6.37;5.30;;;8.60;99.90;;;;;;5048084;28;20951;-77
2022/10/05 05:00:22;;;;;;;6.90;5.37;;;8.60;99.90;;;;;;5049512;28;20903;-78
2022/10/05 05:03:15;;;;;;;5.87;4.60;;;8.70;99.90;;;;;;5048280;28;20541;-77
2022/10/05 05:06:00;;;;;;;9.23;4.40;;;8.70;99.90;;;;;;5049487;28;20921;-77
2022/10/05 05:08:52;;;;;;;9.90;4.77;;;8.70;99.90;;;;;;5049380;28;20457;-78
2022/10/05 05:11:24;;;;;;;8.17;4.10;;;8.70;99.90;;;;;;5046910;28;20798;-78
2022/10/05 05:14:10;;;;;;;6.47;4.30;;;8.60;99.90;;;;;;5047660;28;20553;-78
2022/10/05 05:16:38;;;;;;;4.57;4.13;;;8.50;99.90;;;;;;5049093;28;20417;-78
2022/10/05 05:19:29;;;;;;;5.90;4.30;;;8.40;99.90;;;;;;5049070;28;20510;-78
2022/10/05 05:22:06;;;;;;;7.77;4.40;;;8.40;99.90;;;;;;5049042;28;20950;-78
2022/10/05 05:24:50;;;;;;;5.47;4.70;;;8.40;99.90;;;;;;5047714;28;20583;-78
2022/10/05 05:27:43;;;;;;;5.20;3.77;;;8.30;99.90;;;;;;5049334;28;20396;-77
2022/10/05 05:30:28;;;;;;;3.47;3.17;;;8.20;99.90;;;;;;5049179;28;20402;-78
2022/10/05 05:33:00;;;;;;;5.10;4.13;;;8.20;99.90;;;;;;5049442;28;20410;-76
2022/10/05 05:35:55;;;;;;;4.87;3.73;;;8.10;99.90;;;;;;5048974;28;20462;-78
2022/10/05 05:38:45;;;;;;;5.47;4.80;;;8.20;99.90;;;;;;5014947;28;20436;-80
2022/10/05 05:41:18;;;;;;;8.63;4.00;;;8.10;99.90;;;;;;5053184;28;20564;-77
2022/10/05 05:43:51;;;;;;;5.30;3.77;;;8.10;99.90;;;;;;5052678;28;20466;-78
2022/10/05 05:46:42;;;;;;;4.80;3.70;;;8.10;99.90;;;;;;5053087;28;20417;-77
2022/10/05 05:49:25;;;;;;;12.63;5.07;;;8.10;99.90;;;;;;5054469;28;20406;-78
2022/10/05 05:51:58;;;;;;;5.50;4.13;;;8.10;99.90;;;;;;5052881;28;20817;-77
2022/10/05 05:54:33;;;;;;;6.67;4.40;;;8.10;99.90;;;;;;5052724;28;20804;-78
2022/10/05 05:57:27;;;;;;;5.70;4.60;;;8.20;99.90;;;;;;5052272;28;20832;-78
2022/10/05 06:00:06;;;;;;;9.23;5.57;;;8.20;99.90;;;;;;5050933;28;20433;-76
2022/10/05 06:02:44;;;;;;;7.73;4.30;;;8.20;99.90;;;;;;5052203;28;20487;-78
2022/10/05 06:05:31;;;;;;;6.33;5.13;;;8.20;99.90;;;;;;5050790;28;20467;-79
2022/10/05 06:08:07;;;;;;;10.33;5.30;;;8.20;99.90;;;;;;5034244;28;20422;-78
2022/10/05 06:10:42;;;;;;;7.93;4.90;;;8.20;99.90;;;;;;5052066;28;20395;-79
2022/10/05 06:13:19;;;;;;;6.70;4.63;;;8.20;99.90;;;;;;5052097;28;20417;-78
2022/10/05 06:15:54;;;;;;;12.63;5.43;;;8.20;99.90;;;;;;5052227;28;20402;-78
2022/10/05 06:18:21;;;;;;;6.47;5.07;;;8.20;99.90;;;;;;5052116;28;20398;-78
2022/10/05 06:21:01;;;;;;;10.60;5.60;;;8.20;99.90;;;;;;5052144;28;20426;-78
2022/10/05 06:23:40;;;;;;;47.57;19.13;;;8.20;99.90;;;;;;5033987;28;20478;-78
2022/10/05 06:26:13;;;;;;;65.90;27.00;;;8.30;99.90;;;;;;5050962;28;20891;-78
2022/10/05 06:28:40;;;;;;;56.27;25.03;;;8.30;99.90;;;;;;5050425;28;20512;-76
2022/10/05 06:31:41;;;;;;;15.57;8.53;;;8.40;99.90;;;;;;5051855;28;20418;-76
2022/10/05 06:34:17;;;;;;;9.10;5.67;;;8.40;99.90;;;;;;5051814;28;20444;-76
2022/10/05 06:36:49;;;;;;;8.77;4.10;;;8.70;99.90;;;;;;5050378;28;20426;-76
2022/10/05 06:39:30;;;;;;;5.30;3.93;;;8.90;99.90;;;;;;5050382;28;20472;-77
2022/10/05 06:42:26;;;;;;;4.33;3.93;;;8.90;99.90;;;;;;5050207;28;20452;-76
2022/10/05 06:45:02;;;;;;;7.13;4.30;;;9.10;99.90;;;;;;5051810;28;20431;-75
2022/10/05 06:47:50;;;;;;;8.90;6.23;;;9.30;99.90;;;;;;5053738;28;20411;-76
2022/10/05 06:50:41;;;;;;;16.60;7.90;;;9.30;99.90;;;;;;5051420;28;20430;-76
2022/10/05 06:53:31;;;;;;;12.50;7.80;;;9.40;99.90;;;;;;5053500;28;20784;-76
2022/10/05 06:56:06;;;;;;;12.13;7.90;;;9.40;99.90;;;;;;5053457;28;20453;-76
2022/10/05 06:58:47;;;;;;;10.97;6.50;;;9.40;99.90;;;;;;5056993;28;20443;-79
2022/10/05 07:01:21;;;;;;;10.10;5.83;;;9.50;99.90;;;;;;5054575;28;21026;-77
2022/10/05 07:04:08;;;;;;;10.83;5.30;;;9.60;99.90;;;;;;5052336;28;20523;-78
2022/10/05 07:06:43;;;;;;;8.60;5.20;;;9.70;99.90;;;;;;5050434;28;20423;-78
2022/10/05 07:09:40;;;;;;;7.10;5.53;;;9.70;99.90;;;;;;5049843;28;20838;-77
2022/10/05 07:12:35;;;;;;;6.80;5.87;;;9.90;99.90;;;;;;5051286;28;20997;-77
2022/10/05 07:15:22;;;;;;;10.40;5.47;;;10.10;99.90;;;;;;5050918;28;20435;-78
2022/10/05 07:18:13;;;;;;;5.30;4.80;;;10.20;99.90;;;;;;5051010;28;20425;-77
2022/10/05 07:20:51;;;;;;;8.17;5.30;;;10.40;99.90;;;;;;5049756;28;20916;-76
2022/10/05 07:23:42;;;;;;;6.20;5.03;;;10.60;99.90;;;;;;5050974;28;20454;-78
2022/10/05 07:26:22;;;;;;;5.83;4.93;;;10.80;99.90;;;;;;5050896;28;20395;-79
2022/10/05 07:29:20;;;;;;;5.37;4.20;;;10.90;99.90;;;;;;5051144;28;20405;-78
2022/10/05 07:32:24;;;;;;;9.60;4.60;;;11.10;99.90;;;;;;5051014;28;20403;-79
2022/10/05 07:38:15;;;;;;;4.90;4.03;;;11.50;99.90;;;;;;5050696;28;20920;-78
2022/10/05 07:40:48;;;;;;;4.03;3.40;;;11.80;99.90;;;;;;5050477;28;20430;-78
2022/10/05 07:43:25;;;;;;;6.07;3.80;;;12.10;99.90;;;;;;5050493;28;20849;-77
2022/10/05 07:46:19;;;;;;;3.87;3.57;;;12.20;99.90;;;;;;5050779;28;20393;-78
2022/10/05 07:49:03;;;;;;;3.43;3.13;;;12.40;99.90;;;;;;5049748;28;20429;-78
2022/10/05 07:51:40;;;;;;;4.43;2.87;;;12.70;99.90;;;;;;5050940;28;20417;-78
2022/10/05 07:54:40;;;;;;;3.73;2.57;;;12.80;99.90;;;;;;5050907;28;20468;-78
2022/10/05 07:57:15;;;;;;;4.17;2.80;;;13.10;99.90;;;;;;5049621;28;21318;-77
2022/10/05 07:59:48;;;;;;;2.80;2.27;;;13.30;99.90;;;;;;5050465;28;20973;-79
2022/10/05 08:02:26;;;;;;;2.80;2.60;;;13.50;99.90;;;;;;5050978;28;20507;-78
2022/10/05 08:04:56;;;;;;;4.10;2.50;;;13.60;99.90;;;;;;5050895;28;20868;-76
2022/10/05 08:07:22;;;;;;;4.10;3.03;;;13.80;99.90;;;;;;5050880;28;20511;-76
2022/10/05 08:09:56;;;;;;;4.43;3.50;;;14.10;99.90;;;;;;5050730;28;20842;-78
2022/10/05 08:12:31;;;;;;;15.00;3.70;;;14.20;99.90;;;;;;5050945;28;20409;-79
2022/10/05 08:15:02;;;;;;;4.87;3.97;;;14.40;99.90;;;;;;5049366;28;20449;-77
2022/10/05 08:17:50;;;;;;;10.53;3.90;;;14.60;99.90;;;;;;5050481;28;20438;-78
2022/10/05 08:20:39;;;;;;;6.30;3.10;;;14.70;99.90;;;;;;5049183;28;20979;-77
2022/10/05 08:23:32;;;;;;;6.40;3.20;;;14.90;99.90;;;;;;5051147;28;20442;-77
2022/10/05 08:26:12;;;;;;;6.10;3.60;;;15.10;99.90;;;;;;5050475;28;20414;-78
2022/10/05 08:28:49;;;;;;;5.60;3.47;;;15.20;99.90;;;;;;5048501;28;20436;-78
2022/10/05 08:31:30;;;;;;;3.37;2.90;;;15.40;99.90;;;;;;5049891;28;20410;-77
2022/10/05 08:34:07;;;;;;;7.43;3.23;;;15.60;99.90;;;;;;5048317;28;20471;-77
2022/10/05 08:36:48;;;;;;;5.73;3.07;;;15.70;99.90;;;;;;5048569;28;20422;-78
2022/10/05 08:39:18;;;;;;;5.30;2.80;;;15.80;99.90;;;;;;5049840;28;20412;-76
2022/10/05 08:42:30;;;;;;;3.67;3.40;;;15.90;99.90;;;;;;5049734;28;20428;-78
2022/10/05 08:45:36;;;;;;;3.27;2.97;;;16.10;99.90;;;;;;5049734;28;20448;-78
2022/10/05 08:48:20;;;;;;;4.00;3.40;;;16.30;99.90;;;;;;5025492;28;20950;-79
2022/10/05 08:51:13;;;;;;;4.13;3.10;;;16.50;99.90;;;;;;5049655;28;20994;-78
2022/10/05 08:54:00;;;;;;;3.87;3.50;;;16.70;99.90;;;;;;5048073;28;20447;-78
2022/10/05 08:56:51;;;;;;;5.53;3.43;;;16.90;99.90;;;;;;5049317;28;20517;-78
2022/10/05 08:59:38;;;;;;;5.70;3.90;;;17.20;99.90;;;;;;5049203;28;20412;-78
2022/10/05 09:02:23;;;;;;;6.33;3.00;;;17.50;99.90;;;;;;5047449;28;20777;-77
2022/10/05 09:05:13;;;;;;;7.40;3.37;;;18.00;99.90;;;;;;5048677;28;20450;-77
2022/10/05 09:07:49;;;;;;;6.43;3.40;;;18.70;99.90;;;;;;5049028;28;20501;-77
2022/10/05 09:10:26;;;;;;;3.50;3.20;;;19.30;99.90;;;;;;5049609;28;20400;-78
2022/10/05 09:13:30;;;;;;;6.80;2.90;;;20.20;99.90;;;;;;5053695;28;20406;-77
2022/10/05 09:16:17;;;;;;;4.20;3.17;;;20.70;99.90;;;;;;5053504;28;20447;-77
2022/10/05 09:18:51;;;;;;;2.90;2.60;;;21.30;99.90;;;;;;5052566;28;20431;-76
2022/10/05 09:21:26;;;;;;;3.27;2.70;;;21.80;99.90;;;;;;5051524;28;20798;-77
2022/10/05 09:24:11;;;;;;;3.53;2.60;;;22.00;99.90;;;;;;5052642;28;20472;-77
2022/10/05 09:26:39;;;;;;;3.53;2.13;;;22.40;99.90;;;;;;5052830;28;20402;-77
2022/10/05 09:29:42;;;;;;;3.00;2.70;;;22.90;99.90;;;;;;5052419;28;20496;-77
2022/10/05 09:32:08;;;;;;;2.80;2.03;;;23.50;99.90;;;;;;5051175;28;21232;-78
2022/10/05 09:35:06;;;;;;;4.77;2.30;;;23.80;99.10;;;;;;5052293;28;20559;-77
2022/10/05 09:37:56;;;;;;;7.47;3.30;;;24.10;97.70;;;;;;5052339;28;20165;-76
2022/10/05 09:40:46;;;;;;;3.43;2.30;;;24.30;97.90;;;;;;5052383;28;20911;-77
2022/10/05 09:43:39;;;;;;;4.27;2.60;;;24.70;96.10;;;;;;5050735;28;20453;-76
2022/10/05 09:46:36;;;;;;;2.43;2.23;;;25.10;96.60;;;;;;5052274;28;20443;-76
2022/10/05 09:49:24;;;;;;;2.33;2.13;;;25.20;95.60;;;;;;5052291;28;20414;-77
2022/10/05 09:52:11;;;;;;;2.13;2.03;;;25.50;93.80;;;;;;5052165;28;20426;-75
2022/10/05 09:55:08;;;;;;;4.07;2.10;;;25.90;94.90;;;;;;5052564;28;20433;-77
2022/10/05 09:57:59;;;;;;;4.47;2.13;;;26.20;92.40;;;;;;5046697;28;21020;-77
2022/10/05 10:00:41;;;;;;;3.60;2.30;;;26.30;92.90;;;;;;5051136;28;20520;-76
2022/10/05 10:03:10;;;;;;;5.53;2.63;;;26.50;92.40;;;;;;5052624;28;20466;-77
2022/10/05 10:05:54;;;;;;;5.80;1.80;;;26.40;90.70;;;;;;5052531;28;20423;-77
2022/10/05 10:08:44;;;;;;;4.60;1.87;;;26.20;91.70;;;;;;5052603;28;20458;-76
2022/10/05 10:11:37;;;;;;;2.40;2.20;;;26.40;91.00;;;;;;5052341;28;20430;-77
2022/10/05 10:14:40;;;;;;;2.30;2.10;;;26.60;91.70;;;;;;5052273;28;20811;-77
2022/10/05 10:17:37;;;;;;;2.73;2.33;;;26.60;90.60;;;;;;5052154;28;20508;-77
2022/10/05 10:20:36;;;;;;;2.27;2.03;;;26.70;88.40;;;;;;5052144;28;20414;-78
2022/10/05 10:23:14;;;;;;;4.17;2.40;;;26.90;90.30;;;;;;5050351;28;20469;-78
2022/10/05 10:25:52;;;;;;;3.73;1.80;;;27.40;88.20;;;;;;5052787;28;20407;-77
2022/10/05 10:28:42;;;;;;;2.00;1.73;;;27.40;85.10;;;;;;5052448;28;20414;-79
2022/10/05 10:31:36;;;;;;;6.10;2.00;;;27.70;85.20;;;;;;5052543;28;20920;-80
2022/10/05 10:34:02;;;;;;;2.30;1.87;;;27.40;86.00;;;;;;5052078;28;20522;-77
2022/10/05 10:36:42;;;;;;;3.03;1.70;;;27.00;83.80;;;;;;5050569;28;20517;-75
2022/10/05 10:39:20;;;;;;;2.27;1.40;;;27.30;86.50;;;;;;5052321;28;20237;-77
2022/10/05 10:42:17;;;;;;;3.13;1.93;;;27.40;84.00;;;;;;5051939;28;20397;-76
2022/10/05 10:45:13;;;;;;;1.67;1.50;;;27.40;85.40;;;;;;5051615;28;20438;-77
2022/10/05 10:47:53;;;;;;;6.20;2.10;;;27.40;85.20;;;;;;5050379;28;20419;-75
2022/10/05 10:50:34;;;;;;;1.97;1.30;;;27.60;84.40;;;;;;5050273;28;20449;-75
2022/10/05 10:53:56;;;;;;;2.77;1.80;;;27.50;84.10;;;;;;5051592;28;20493;-75
2022/10/05 10:56:32;;;;;;;2.53;1.60;;;27.90;83.10;;;;;;5028540;28;20418;-76
2022/10/05 10:59:06;;;;;;;2.30;1.60;;;28.30;80.00;;;;;;5051480;28;21092;-76
2022/10/05 11:02:10;;;;;;;1.77;1.60;;;28.40;78.60;;;;;;5052209;28;20436;-76
2022/10/05 11:04:57;;;;;;;1.53;1.43;;;28.10;80.30;;;;;;5035947;28;20458;-78
2022/10/05 11:07:26;;;;;;;4.90;1.60;;;28.10;82.30;;;;;;5051739;28;20403;-76
2022/10/05 11:10:00;;;;;;;4.50;1.60;;;28.40;81.80;;;;;;5051170;28;20410;-78
2022/10/05 11:13:00;;;;;;;2.10;1.70;;;28.60;81.00;;;;;;5051296;28;20402;-77
2022/10/05 11:15:35;;;;;;;3.00;1.60;;;28.70;79.20;;;;;;5049922;28;20516;-77
2022/10/05 11:18:10;;;;;;;3.70;1.90;;;28.70;77.40;;;;;;5051242;28;20398;-77
2022/10/05 11:21:00;;;;;;;7.40;1.80;;;28.60;82.60;;;;;;5051125;28;20428;-75
2022/10/05 11:23:32;;;;;;;3.10;1.50;;;28.40;78.50;;;;;;5050876;28;20520;-78
2022/10/05 11:26:03;;;;;;;2.10;1.87;;;28.60;80.80;;;;;;5051517;28;20959;-77
2022/10/05 11:29:05;;;;;;;3.10;1.73;;;28.50;79.90;;;;;;5050908;28;20410;-75
2022/10/05 11:32:10;;;;;;;7.67;1.47;;;28.30;79.70;;;;;;5050856;28;20434;-76
2022/10/05 11:34:58;;;;;;;2.50;1.80;;;28.40;83.30;;;;;;5049837;28;20518;-76
2022/10/05 11:37:47;;;;;;;2.77;1.73;;;28.10;84.20;;;;;;5050880;28;20476;-75
2022/10/05 11:40:25;;;;;;;2.07;1.70;;;28.10;84.00;;;;;;5049374;28;20418;-75
2022/10/05 11:42:56;;;;;;;8.10;1.80;;;27.70;85.90;;;;;;5049189;28;20509;-76
2022/10/05 11:45:42;;;;;;;2.83;1.80;;;27.70;87.90;;;;;;5050605;28;20430;-77
2022/10/05 11:48:37;;;;;;;2.73;2.00;;;27.60;89.10;;;;;;5050940;28;20398;-77
2022/10/05 11:51:29;;;;;;;3.83;1.90;;;27.30;88.90;;;;;;5050579;28;20418;-75
2022/10/05 11:53:57;;;;;;;2.30;1.90;;;27.20;89.60;;;;;;5050433;28;20847;-76
2022/10/05 11:56:29;;;;;;;4.50;2.00;;;27.30;90.10;;;;;;5050776;28;20417;-76
2022/10/05 11:59:12;;;;;;;16.40;1.80;;;27.10;90.30;;;;;;5049560;28;20533;-75
2022/10/05 12:02:07;;;;;;;6.30;2.00;;;27.10;90.40;;;;;;5049911;28;20418;-75
2022/10/05 12:04:51;;;;;;;5.00;1.97;;;26.90;90.40;;;;;;5053173;28;20515;-78
2022/10/05 12:07:32;;;;;;;3.20;2.00;;;26.60;89.90;;;;;;5053200;28;20430;-78
2022/10/05 12:10:22;;;;;;;3.03;2.00;;;26.70;90.70;;;;;;5051657;28;20447;-78
2022/10/05 12:13:07;;;;;;;3.83;2.03;;;26.50;89.60;;;;;;5020848;28;20415;-79
2022/10/05 12:15:42;;;;;;;3.90;1.80;;;26.80;89.90;;;;;;5051037;28;20829;-78
2022/10/05 12:18:16;;;;;;;3.77;1.83;;;26.90;87.70;;;;;;5049510;28;20408;-78
2022/10/05 12:21:09;;;;;;;2.23;1.43;;;26.50;87.80;;;;;;5050629;28;20405;-78
2022/10/05 12:23:42;;;;;;;2.30;1.07;;;26.40;86.60;;;;;;5048714;28;20493;-77
2022/10/05 12:26:19;;;;;;;5.63;1.20;;;26.30;84.00;;;;;;5050607;28;20422;-78
2022/10/05 12:29:02;;;;;;;6.03;1.13;;;26.20;82.60;;;;;;5050575;28;20448;-79
2022/10/05 12:31:39;;;;;;;1.73;1.53;;;26.10;79.60;;;;;;5050597;28;20509;-77
2022/10/05 12:34:48;;;;;;;1.50;0.97;;;26.30;83.50;;;;;;5050573;28;20434;-77
2022/10/05 12:38:06;;;;;;;1.20;1.03;;;26.40;84.20;;;;;;5008497;28;20435;-76
2022/10/05 12:40:50;;;;;;;2.47;0.90;;;26.30;78.80;;;;;;5028278;28;20505;-77
2022/10/05 12:43:24;;;;;;;2.27;1.00;;;25.90;77.60;;;;;;5050342;28;20460;-76
2022/10/05 12:45:55;;;;;;;10.10;1.27;;;26.00;81.20;;;;;;5049881;28;20398;-77
2022/10/05 12:48:29;;;;;;;2.10;1.03;;;25.70;77.20;;;;;;5050033;28;20770;-77
2022/10/05 12:51:27;;;;;;;2.27;0.80;;;25.70;77.10;;;;;;5050290;28;20421;-77
2022/10/05 12:54:00;;;;;;;1.67;0.90;;;25.70;77.50;;;;;;5046833;28;20472;-75
2022/10/05 12:56:52;;;;;;;2.60;0.70;;;25.60;75.10;;;;;;5049899;28;20417;-76
2022/10/05 12:59:44;;;;;;;2.50;1.10;;;25.70;79.40;;;;;;5033532;28;20442;-77
2022/10/05 13:02:30;;;;;;;1.10;0.70;;;25.40;74.00;;;;;;5031332;28;20944;-76
2022/10/05 13:05:07;;;;;;;4.30;0.90;;;25.70;78.10;;;;;;5049857;28;20422;-78
2022/10/05 13:07:57;;;;;;;3.23;0.80;;;25.80;77.90;;;;;;5049924;28;20442;-76
2022/10/05 13:10:35;;;;;;;2.70;1.10;;;25.80;72.40;;;;;;5049942;28;20915;-77
2022/10/05 13:13:19;;;;;;;0.87;0.67;;;25.90;77.40;;;;;;5049913;28;20422;-77
2022/10/05 13:16:23;;;;;;;7.00;1.23;;;25.70;72.40;;;;;;5048252;28;20411;-75
2022/10/05 13:19:17;;;;;;;8.53;0.90;;;25.60;71.30;;;;;;5034915;28;20453;-75
2022/10/05 13:21:52;;;;;;;1.73;0.80;;;25.40;72.50;;;;;;5049321;28;20497;-78
2022/10/05 13:24:41;;;;;;;1.40;1.30;;;25.40;74.50;;;;;;5047943;28;20499;-76
2022/10/05 13:27:17;;;;;;;1.53;0.80;;;25.30;74.80;;;;;;5047899;28;20471;-75
2022/10/05 13:29:57;;;;;;;1.17;0.80;;;25.30;76.10;;;;;;5049307;28;20416;-76
2022/10/05 13:32:28;;;;;;;1.00;0.70;;;25.30;72.10;;;;;;5048410;28;21092;-77
2022/10/05 13:35:06;;;;;;;1.20;0.70;;;25.20;70.50;;;;;;5049258;28;20441;-76
2022/10/05 13:37:45;;;;;;;1.77;0.83;;;25.10;70.50;;;;;;5050080;28;20459;-76
2022/10/05 13:40:20;;;;;;;2.00;0.90;;;24.80;67.60;;;;;;5048526;28;20538;-76
2022/10/05 13:43:23;;;;;;;2.80;0.70;;;24.80;73.30;;;;;;5049135;28;20556;-77
2022/10/05 13:46:05;;;;;;;1.30;0.57;;;24.70;75.50;;;;;;5049122;28;20947;-76
2022/10/05 13:49:03;;;;;;;1.67;0.80;;;24.60;71.50;;;;;;5049282;28;20390;-75
2022/10/05 13:51:56;;;;;;;2.60;0.90;;;24.60;71.60;;;;;;5049082;28;20398;-77
2022/10/05 13:54:30;;;;;;;1.00;0.83;;;24.50;71.80;;;;;;5048908;28;21228;-78
2022/10/05 13:57:33;;;;;;;1.00;0.80;;;24.30;71.10;;;;;;5048909;28;20415;-77
2022/10/05 14:00:20;;;;;;;2.60;0.77;;;24.30;72.10;;;;;;5040129;28;20508;-76
2022/10/05 14:02:51;;;;;;;1.90;0.80;;;24.30;72.40;;;;;;5052718;28;20461;-77
2022/10/05 14:05:20;;;;;;;0.97;0.77;;;24.30;72.30;;;;;;5051371;28;20480;-76
2022/10/05 14:07:51;;;;;;;0.90;0.80;;;24.30;68.80;;;;;;5052523;28;21064;-76
2022/10/05 14:10:44;;;;;;;3.63;1.00;;;24.20;70.20;;;;;;5052530;28;20423;-78
2022/10/05 14:13:18;;;;;;;2.13;0.90;;;24.10;74.00;;;;;;5050881;28;20509;-75
2022/10/05 14:16:05;;;;;;;2.77;0.80;;;24.10;70.70;;;;;;5050929;28;20429;-77
2022/10/05 14:18:35;;;;;;;1.60;0.70;;;24.10;73.40;;;;;;5050426;28;20437;-77